METAR - Iceland

Last updated 17.01.2022 - at. 04:50

SIGMET for the last six hours

No SIGMET messages last 6 hours.

METAR from the last three hours

From October 1 2021, runway conditions will not appear in METAR messages.
Instead ISAVIA will show SNOWTAM here: SNOWTAM | Isavia.

AerodromeTimeMessage
BIAR2022-01-17 04.00METAR BIAR 170400Z 19013G26KT 9999 -RA OVC047 07/02 Q1005
BIAR2022-01-17 03.00METAR BIAR 170300Z 19013G25KT 170V230 9999 SCT053 10/01 Q1005
BIAR2022-01-17 02.00METAR BIAR 170200Z VRB07KT 9999 SCT053 07/01 Q1005
BIEG2022-01-17 04.00METAR BIEG 170400Z 21015KT 9999 BKN052 OVC062 00/M03 Q1010
BIEG2022-01-17 03.00METAR BIEG 170300Z 21013KT 9999 OVC053 M00/M04 Q1011
BIEG2022-01-17 02.00METAR BIEG 170200Z 20018KT 9999 BKN040 BKN049 OVC064 M01/M04 Q1012
BIKF2022-01-17 04.30METAR BIKF 170430Z 20024KT 4000 -DZRA OVC006 06/06 Q1009
BIKF2022-01-17 04.00METAR BIKF 170400Z 21026KT 4000 -DZRA OVC008 07/06 Q1010
BIKF2022-01-17 03.30METAR BIKF 170330Z 20025KT 7000 -DZ OVC010 07/06 Q1009
BIKF2022-01-17 03.00METAR BIKF 170300Z 20025KT 3000 -DZRA OVC011 06/06 Q1010
BIKF2022-01-17 02.30METAR BIKF 170230Z 20025KT 7000 -DZRA OVC012 07/06 Q1010
BIKF2022-01-17 02.00METAR BIKF 170200Z 21024KT 7000 -DZRA OVC012 07/06 Q1010
BIRK2022-01-17 04.00METAR BIRK 170400Z 20017KT 7000 OVC010 06/04 Q1010
BIRK2022-01-17 03.00METAR BIRK 170300Z 20019KT 9000 VCSH OVC011 06/04 Q1010
BIRK2022-01-17 02.00METAR BIRK 170200Z 20020KT 7000 -DZ OVC011 06/04 Q1011





Other related web sites


This website is built with Eplica CMS